createdAt,value
2022-07-27T05:31:35.714Z,3.03
2022-07-27T05:34:37.737Z,2.97
2022-07-27T05:37:40.042Z,3.10
2022-07-27T05:40:45.645Z,3.33
2022-07-27T05:43:47.917Z,2.72
2022-07-27T05:46:49.684Z,3.17
2022-07-27T05:49:51.702Z,3.40
2022-07-27T05:52:54.360Z,3.63
2022-07-27T05:55:59.454Z,3.08
2022-07-27T05:59:07.467Z,2.90
2022-07-27T06:02:09.912Z,2.78
2022-07-27T06:05:15.713Z,2.97
2022-07-27T06:08:19.403Z,3.03
2022-07-27T06:11:22.000Z,2.80
2022-07-27T06:49:50.497Z,3.60
2022-07-27T06:52:52.242Z,2.92
2022-07-27T06:55:54.817Z,2.97
2022-07-27T06:58:57.609Z,2.65
2022-07-27T07:01:59.605Z,3.38
2022-07-27T07:05:04.170Z,3.60
2022-07-27T07:08:11.440Z,3.05
2022-07-27T07:11:14.186Z,3.25
2022-07-27T07:14:19.038Z,2.70
2022-07-27T07:17:20.850Z,2.92
2022-07-27T07:20:23.431Z,3.08
2022-07-27T07:23:25.305Z,3.08
2022-07-27T07:26:27.052Z,3.47
2022-07-27T07:29:29.136Z,3.15
2022-07-27T07:32:33.510Z,3.03
2022-07-27T07:35:35.772Z,3.60
2022-07-27T07:38:38.085Z,2.92
2022-07-27T07:41:40.522Z,2.85
2022-07-27T07:44:42.993Z,2.50
2022-07-27T07:47:45.305Z,2.65
2022-07-27T07:50:51.583Z,2.70
2022-07-27T08:03:01.590Z,2.50
2022-07-27T08:06:06.446Z,3.25
2022-07-27T08:09:08.766Z,2.90
2022-07-27T08:12:10.902Z,3.08
2022-07-27T08:15:14.813Z,2.80
2022-07-27T08:18:16.873Z,2.10
2022-07-27T08:21:19.311Z,2.47
2022-07-27T08:24:21.155Z,3.05
2022-07-27T08:27:23.234Z,2.70
2022-07-27T08:30:25.670Z,2.75
2022-07-27T08:33:27.705Z,2.67
2022-07-27T08:36:32.776Z,2.53
2022-07-27T08:40:37.190Z,2.85
2022-07-27T08:42:56.439Z,3.67
2022-07-27T08:46:01.275Z,2.80
2022-07-27T08:49:03.488Z,2.50
2022-07-27T08:52:06.239Z,3.08
2022-07-27T08:55:08.760Z,2.58
2022-07-27T08:58:12.292Z,2.60
2022-07-27T09:01:14.739Z,2.45
2022-07-27T09:04:16.581Z,2.72
2022-07-27T09:07:31.105Z,2.40
2022-07-27T09:10:35.688Z,2.70
2022-07-27T09:13:37.520Z,3.60
2022-07-27T09:17:28.588Z,2.90
2022-07-27T09:20:06.360Z,2.78
2022-07-27T09:23:08.533Z,2.60
2022-07-27T09:26:30.357Z,2.38
2022-07-27T09:29:35.412Z,2.88
2022-07-27T09:32:37.892Z,2.60
2022-07-27T09:35:39.966Z,3.53
2022-07-27T09:39:05.684Z,2.53
2022-07-27T09:42:47.768Z,2.92
2022-07-27T09:45:39.890Z,2.90
2022-07-27T09:48:43.905Z,2.30
2022-07-27T09:52:04.212Z,2.72
2022-07-27T09:55:07.121Z,2.72
2022-07-27T09:58:15.498Z,3.58
2022-07-27T10:01:21.931Z,2.60
2022-07-27T10:04:24.231Z,2.75
2022-07-27T10:07:26.128Z,2.60
2022-07-27T10:10:28.599Z,3.00
2022-07-27T10:13:30.347Z,2.83
2022-07-27T10:16:34.193Z,2.15
2022-07-27T10:19:51.518Z,2.20
2022-07-27T10:22:56.167Z,2.08
2022-07-27T10:26:20.522Z,2.03
2022-07-27T10:29:23.658Z,1.90
2022-07-27T10:32:28.202Z,2.00
2022-07-27T10:35:34.960Z,2.17
2022-07-27T10:38:57.862Z,2.25
2022-07-27T10:42:21.086Z,2.17
2022-07-27T10:45:22.921Z,2.38
2022-07-27T10:48:48.278Z,1.60
2022-07-27T10:51:53.120Z,2.00
2022-07-27T10:54:59.799Z,1.58
2022-07-27T10:58:02.995Z,2.15
2022-07-27T11:01:07.535Z,1.90
2022-07-27T11:04:10.540Z,2.20
2022-07-27T11:07:28.188Z,1.77
2022-07-27T11:10:44.057Z,2.00
2022-07-27T11:13:47.032Z,1.92
2022-07-27T11:16:55.852Z,2.10
2022-07-27T11:20:00.721Z,2.58
2022-07-27T11:26:44.469Z,2.08
2022-07-27T11:29:46.209Z,1.80
2022-07-27T11:32:49.059Z,1.83
2022-07-27T11:36:00.079Z,1.60
2022-07-27T11:39:02.318Z,1.60
2022-07-27T11:42:11.731Z,1.75
2022-07-27T11:45:28.924Z,1.60
2022-07-27T11:48:49.633Z,1.73
2022-07-27T11:51:54.457Z,1.75
2022-07-27T11:54:56.209Z,3.85
2022-07-27T11:58:04.952Z,1.60
2022-07-27T12:01:06.781Z,1.80
2022-07-27T12:04:13.199Z,1.88
2022-07-27T12:07:21.960Z,2.08
2022-07-27T12:10:23.961Z,1.40
2022-07-27T12:13:40.715Z,2.47
2022-07-27T12:16:42.564Z,1.52
2022-07-27T12:19:57.624Z,1.58
2022-07-27T12:23:04.929Z,1.50
2022-07-27T12:26:18.356Z,1.00
2022-07-27T12:29:20.198Z,1.85
2022-07-27T12:32:22.804Z,1.67
2022-07-27T12:35:31.549Z,1.88
2022-07-27T12:38:41.432Z,1.73
2022-07-27T12:41:43.141Z,2.45
2022-07-27T12:44:46.241Z,1.67
2022-07-27T12:47:48.260Z,1.48
2022-07-27T12:51:03.458Z,1.33
2022-07-27T12:54:05.828Z,1.70
2022-07-27T12:57:07.576Z,1.75
2022-07-27T13:00:13.044Z,1.33
2022-07-27T13:03:15.599Z,1.23
2022-07-27T13:06:17.742Z,1.83
2022-07-27T13:09:19.407Z,1.77
2022-07-27T13:12:22.125Z,1.85
2022-07-27T13:15:24.097Z,1.45
2022-07-27T13:18:25.837Z,1.58
2022-07-27T13:21:27.841Z,1.92
2022-07-27T13:24:29.650Z,1.65
2022-07-27T13:27:31.542Z,1.40
2022-07-27T13:30:33.440Z,1.20
2022-07-27T13:33:35.270Z,1.50
2022-07-27T13:36:40.551Z,1.67
2022-07-27T13:39:42.241Z,1.52
2022-07-27T13:42:44.678Z,1.40
2022-07-27T13:45:46.428Z,1.60
2022-07-27T13:48:48.212Z,1.42
2022-07-27T13:51:49.933Z,1.33
2022-07-27T13:54:51.766Z,1.73
2022-07-27T13:57:53.487Z,1.63
2022-07-27T14:00:55.600Z,1.65
2022-07-27T14:03:57.563Z,1.40
2022-07-27T14:06:59.440Z,1.60
2022-07-27T14:10:21.080Z,1.50
2022-07-27T14:13:23.109Z,1.55
2022-07-27T14:16:24.984Z,1.30
2022-07-27T14:19:28.112Z,1.30
2022-07-27T14:22:29.852Z,1.55
2022-07-27T14:25:31.947Z,1.25
2022-07-27T14:28:34.409Z,1.60
2022-07-27T14:31:36.180Z,1.40
2022-07-27T14:34:38.083Z,2.17
2022-07-27T14:37:40.177Z,1.70
2022-07-27T14:40:41.991Z,1.73
2022-07-27T14:43:43.897Z,1.65
2022-07-27T14:46:46.162Z,1.42
2022-07-27T14:49:48.141Z,2.03
2022-07-27T14:52:50.506Z,1.58
2022-07-27T14:55:52.359Z,1.63
2022-07-27T14:58:54.064Z,1.80
2022-07-27T15:01:55.966Z,1.63
2022-07-27T15:04:57.898Z,1.50
2022-07-27T15:08:00.033Z,1.40
2022-07-27T15:11:01.786Z,1.33
2022-07-27T15:14:05.198Z,1.23
2022-07-27T15:17:07.250Z,1.35
2022-07-27T15:20:09.781Z,1.65
2022-07-27T15:23:11.760Z,1.70
2022-07-27T15:26:13.762Z,1.38
2022-07-27T15:29:15.999Z,1.52
2022-07-27T15:32:18.049Z,1.30
2022-07-27T15:35:21.117Z,1.80
2022-07-27T15:38:23.304Z,1.63
2022-07-27T15:41:25.080Z,1.23
2022-07-27T15:44:26.837Z,1.67
2022-07-27T15:47:28.583Z,1.50
2022-07-27T15:50:30.372Z,1.40
2022-07-27T15:53:32.327Z,1.65
2022-07-27T15:56:34.194Z,1.63
2022-07-27T15:59:35.888Z,1.63
